Time;durP1;ratioP1;P1;durP2;ratioP2;P2;SDS_P1;SDS_P2;PMS_P1;PMS_P2;Temp;Humidity;BMP_temperature;BMP_pressure;BME280_temperature;BME280_humidity;BME280_pressure;Samples;Min_cycle;Max_cycle;Signal;HPM_P1;HPM_P2
2021/07/26 00:01:24;;;;;;;15.32;7.88;;;;;;;17.13;100.00;100287.31;5019761;28;20504;-69
2021/07/26 00:03:52;;;;;;;13.30;8.13;;;;;;;17.18;100.00;100290.16;5024893;28;20437;-70
2021/07/26 00:06:21;;;;;;;16.10;8.20;;;;;;;17.05;100.00;100291.09;5021867;28;20053;-69
2021/07/26 00:08:49;;;;;;;14.73;8.20;;;;;;;16.95;100.00;100280.78;5018664;28;20072;-69
2021/07/26 00:11:18;;;;;;;14.05;8.75;;;;;;;16.98;100.00;100284.94;5025440;28;20426;-68
2021/07/26 00:13:46;;;;;;;13.30;8.30;;;;;;;16.87;100.00;100283.75;5022849;28;20041;-68
2021/07/26 00:16:14;;;;;;;21.33;9.57;;;;;;;16.76;100.00;100282.56;5025854;28;20364;-68
2021/07/26 00:18:41;;;;;;;16.88;8.45;;;;;;;16.67;100.00;100279.28;5024557;28;20400;-69
2021/07/26 00:21:09;;;;;;;18.48;8.68;;;;;;;16.59;100.00;100286.81;5017660;28;20208;-69
2021/07/26 00:23:39;;;;;;;17.67;8.40;;;;;;;16.52;100.00;100270.66;5021655;28;20037;-68
2021/07/26 00:26:06;;;;;;;18.00;8.70;;;;;;;16.40;100.00;100277.78;5022371;28;20307;-69
2021/07/26 00:28:34;;;;;;;17.98;10.10;;;;;;;16.34;100.00;100271.38;5020151;28;20042;-69
2021/07/26 00:31:02;;;;;;;16.50;9.35;;;;;;;16.31;100.00;100278.00;5020717;28;20495;-69
2021/07/26 00:34:25;;;;;;;19.40;8.88;;;;;;;16.29;100.00;100268.50;5022702;28;20096;-68
2021/07/26 00:36:53;;;;;;;16.85;8.65;;;;;;;16.44;100.00;100273.59;5024519;28;20068;-69
2021/07/26 00:39:24;;;;;;;15.98;8.40;;;;;;;16.34;100.00;100265.97;5019166;28;20049;-68
2021/07/26 00:41:53;;;;;;;15.80;8.13;;;;;;;16.15;100.00;100268.56;5021972;28;20370;-68
2021/07/26 00:44:22;;;;;;;15.23;7.75;;;;;;;16.14;100.00;100268.78;5022972;28;20433;-69
2021/07/26 00:46:51;;;;;;;14.15;8.07;;;;;;;16.36;100.00;100258.53;5024278;28;20045;-68
2021/07/26 00:49:19;;;;;;;16.65;8.13;;;;;;;16.36;100.00;100261.22;5023246;28;20099;-69
2021/07/26 00:51:49;;;;;;;16.60;9.30;;;;;;;16.29;100.00;100263.94;5017277;28;20048;-69
2021/07/26 00:54:18;;;;;;;14.38;8.07;;;;;;;16.28;100.00;100267.66;5017686;28;20046;-69
2021/07/26 00:56:48;;;;;;;16.65;9.25;;;;;;;16.26;100.00;100275.16;5021826;28;20438;-69
2021/07/26 00:59:17;;;;;;;17.27;7.95;;;;;;;16.22;100.00;100271.22;5016546;28;20060;-70
2021/07/26 01:01:45;;;;;;;19.30;9.27;;;;;;;16.02;100.00;100265.94;5019045;28;20338;-69
2021/07/26 01:04:13;;;;;;;16.10;9.00;;;;;;;16.01;100.00;100265.06;5020049;28;20076;-69
2021/07/26 01:06:41;;;;;;;20.00;8.73;;;;;;;16.04;100.00;100263.84;5020985;28;20049;-70
2021/07/26 01:09:09;;;;;;;17.45;9.35;;;;;;;16.09;100.00;100264.03;5020103;28;20080;-69
2021/07/26 01:11:37;;;;;;;18.90;9.25;;;;;;;16.02;100.00;100260.53;5016699;28;20257;-69
2021/07/26 01:14:07;;;;;;;17.75;8.13;;;;;;;16.00;100.00;100263.44;5023813;28;20132;-70
2021/07/26 01:16:35;;;;;;;12.95;8.00;;;;;;;15.83;100.00;100264.94;5020686;28;20041;-69
2021/07/26 01:19:03;;;;;;;17.73;8.40;;;;;;;15.67;100.00;100266.19;4957930;28;1766020;-69
2021/07/26 01:21:32;;;;;;;20.08;9.45;;;;;;;15.59;100.00;100266.41;5018096;28;20284;-70
2021/07/26 01:24:01;;;;;;;19.67;9.35;;;;;;;15.47;100.00;100264.34;5019423;28;20057;-70
2021/07/26 01:26:30;;;;;;;38.92;10.90;;;;;;;15.37;100.00;100266.63;5020618;28;20123;-69
2021/07/26 01:28:59;;;;;;;16.20;8.07;;;;;;;15.36;100.00;100267.66;5019777;28;20049;-69
2021/07/26 01:31:28;;;;;;;17.50;8.32;;;;;;;15.38;100.00;100273.69;5016957;28;20037;-69
2021/07/26 01:33:57;;;;;;;14.82;8.93;;;;;;;15.41;100.00;100269.72;5019291;28;20045;-69
2021/07/26 01:36:25;;;;;;;19.08;8.23;;;;;;;15.43;100.00;100264.97;5020179;28;20112;-69
2021/07/26 01:38:55;;;;;;;16.33;7.93;;;;;;;15.45;100.00;100266.44;5021866;28;20056;-69
2021/07/26 01:41:25;;;;;;;15.50;7.68;;;;;;;15.37;100.00;100263.13;5018452;28;20107;-69
2021/07/26 01:44:03;;;;;;;16.20;7.63;;;;;;;15.35;100.00;100267.88;5022065;28;20050;-69
2021/07/26 01:46:42;;;;;;;14.93;7.68;;;;;;;15.23;100.00;100263.13;5022428;28;20488;-69
2021/07/26 01:49:33;;;;;;;17.60;8.15;;;;;;;15.18;100.00;100260.22;5018742;28;20041;-69
2021/07/26 01:52:01;;;;;;;18.35;8.90;;;;;;;15.35;100.00;100263.31;5023351;28;20037;-69
2021/07/26 01:54:31;;;;;;;18.13;8.98;;;;;;;15.24;100.00;100263.94;5019000;28;20038;-69
2021/07/26 01:56:59;;;;;;;15.35;8.32;;;;;;;15.42;100.00;100269.53;5019424;28;20041;-69
2021/07/26 01:59:26;;;;;;;19.85;8.40;;;;;;;15.47;100.00;100275.09;5021620;28;20495;-70
2021/07/26 02:01:54;;;;;;;23.50;8.73;;;;;;;15.51;100.00;100272.84;5015952;28;20075;-69
2021/07/26 02:04:22;;;;;;;15.80;8.25;;;;;;;15.42;100.00;100276.78;5020681;28;20054;-69
2021/07/26 02:06:50;;;;;;;17.00;9.15;;;;;;;15.47;100.00;100272.41;5016791;28;20045;-69
2021/07/26 02:09:18;;;;;;;16.58;8.38;;;;;;;15.60;100.00;100281.53;5020554;28;20371;-69
2021/07/26 02:11:48;;;;;;;18.20;8.45;;;;;;;15.73;100.00;100284.16;5018220;28;20050;-69
2021/07/26 02:14:16;;;;;;;18.33;8.48;;;;;;;15.65;100.00;100287.94;5018156;28;20053;-69
2021/07/26 02:16:51;;;;;;;18.63;8.43;;;;;;;15.54;100.00;100285.88;5020116;28;20341;-69
2021/07/26 02:19:19;;;;;;;21.47;9.03;;;;;;;15.73;100.00;100286.88;5020225;28;20045;-69
2021/07/26 02:21:47;;;;;;;15.60;8.25;;;;;;;15.81;100.00;100286.69;5018084;28;20346;-69
2021/07/26 02:24:15;;;;;;;19.55;8.93;;;;;;;15.80;100.00;100287.72;5017808;28;20046;-69
2021/07/26 02:26:43;;;;;;;16.05;8.48;;;;;;;15.73;100.00;100284.16;5016616;28;20053;-69
2021/07/26 02:29:12;;;;;;;24.20;8.40;;;;;;;15.63;100.00;100284.59;5021170;28;20071;-70
2021/07/26 02:31:40;;;;;;;22.33;8.93;;;;;;;15.54;100.00;100285.06;5015718;28;20116;-69
2021/07/26 02:34:08;;;;;;;21.73;9.40;;;;;;;15.46;100.00;100278.81;5020883;28;20353;-69
2021/07/26 02:36:38;;;;;;;14.68;7.95;;;;;;;15.56;100.00;100289.16;5018939;28;20045;-69
2021/07/26 02:39:06;;;;;;;19.25;8.93;;;;;;;15.57;100.00;100285.44;5021281;28;20111;-69
2021/07/26 02:41:34;;;;;;;17.10;7.22;;;;;;;15.62;100.00;100284.81;5017192;28;20052;-69
2021/07/26 02:44:02;;;;;;;18.73;8.93;;;;;;;15.83;100.00;100284.63;5019979;28;20053;-70
2021/07/26 02:46:31;;;;;;;20.08;8.55;;;;;;;15.60;100.00;100281.53;5020330;28;20049;-70
2021/07/26 02:48:59;;;;;;;19.45;7.57;;;;;;;15.52;100.00;100279.03;5018645;28;20135;-69
2021/07/26 02:51:27;;;;;;;17.17;8.80;;;;;;;15.70;100.00;100283.78;5021024;28;20437;-69
2021/07/26 02:53:56;;;;;;;14.90;7.60;;;;;;;15.71;100.00;100285.44;5020195;28;20048;-69
2021/07/26 02:56:23;;;;;;;19.20;9.35;;;;;;;15.75;100.00;100287.50;5021280;28;20114;-69
2021/07/26 02:58:52;;;;;;;12.60;7.97;;;;;;;15.71;100.00;100297.03;5022602;28;20409;-69
2021/07/26 03:01:20;;;;;;;15.10;7.80;;;;;;;15.60;100.00;100290.41;5019430;28;20087;-69
2021/07/26 03:03:50;;;;;;;16.95;7.55;;;;;;;15.47;100.00;100291.25;5018776;28;20033;-70
2021/07/26 03:06:19;;;;;;;15.93;7.75;;;;;;;15.54;100.00;100295.81;5019815;28;20327;-69
2021/07/26 03:08:47;;;;;;;15.80;9.40;;;;;;;15.46;100.00;100294.16;5015984;28;20593;-69
2021/07/26 03:11:15;;;;;;;19.45;9.57;;;;;;;15.63;100.00;100299.94;5018018;28;20048;-69
2021/07/26 03:13:44;;;;;;;22.55;9.30;;;;;;;15.72;100.00;100304.06;5020755;28;20042;-70
2021/07/26 03:16:13;;;;;;;22.27;10.60;;;;;;;15.76;100.00;100299.94;5018341;28;20044;-69
2021/07/26 03:18:41;;;;;;;17.98;9.48;;;;;;;15.80;100.00;100303.84;5018518;28;20496;-69
2021/07/26 03:21:15;;;;;;;16.15;9.00;;;;;;;15.90;100.00;100310.69;5014921;28;20104;-69
2021/07/26 03:23:43;;;;;;;17.88;9.18;;;;;;;15.97;100.00;100312.31;5018562;28;20349;-69
2021/07/26 03:26:11;;;;;;;21.30;9.77;;;;;;;16.12;100.00;100313.97;5020990;28;20049;-70
2021/07/26 03:28:40;;;;;;;19.13;9.00;;;;;;;16.18;100.00;100313.09;5017918;28;20046;-69
2021/07/26 03:31:08;;;;;;;21.00;10.07;;;;;;;16.10;100.00;100308.75;5017208;28;20045;-69
2021/07/26 03:33:36;;;;;;;20.27;9.27;;;;;;;16.07;100.00;100311.88;5018814;28;20096;-69
2021/07/26 03:36:05;;;;;;;18.60;10.00;;;;;;;16.12;100.00;100320.16;5019944;28;20445;-69
2021/07/26 03:38:34;;;;;;;20.60;10.00;;;;;;;16.08;100.00;100318.09;5023971;28;20053;-68
2021/07/26 03:41:02;;;;;;;22.60;10.27;;;;;;;16.08;100.00;100308.16;5014381;28;20046;-74
2021/07/26 03:43:30;;;;;;;22.25;10.73;;;;;;;16.26;100.00;100309.31;5020159;28;20040;-70
2021/07/26 03:45:58;;;;;;;21.70;10.52;;;;;;;16.17;100.00;100303.34;5013011;28;20088;-71
2021/07/26 03:48:26;;;;;;;26.13;12.00;;;;;;;16.36;100.00;100304.34;5020336;28;20384;-68
2021/07/26 03:50:54;;;;;;;27.77;12.48;;;;;;;16.24;100.00;100306.03;5019868;28;20077;-68
2021/07/26 03:53:21;;;;;;;21.92;11.23;;;;;;;16.20;100.00;100302.09;5017844;28;20046;-69
2021/07/26 03:55:51;;;;;;;22.25;11.70;;;;;;;16.26;100.00;100304.78;5015541;28;20042;-70
2021/07/26 03:58:18;;;;;;;25.70;11.40;;;;;;;16.23;100.00;100310.59;5017914;28;20433;-69
2021/07/26 04:00:46;;;;;;;31.40;12.32;;;;;;;16.14;100.00;100304.59;5020271;28;20054;-69
2021/07/26 04:03:20;;;;;;;26.65;12.02;;;;;;;16.14;100.00;100306.47;5017504;28;20045;-69
2021/07/26 04:05:51;;;;;;;28.13;14.13;;;;;;;16.15;100.00;100311.66;5018723;28;20049;-69
2021/07/26 04:08:22;;;;;;;26.65;11.95;;;;;;;16.19;100.00;100309.38;5020479;28;20046;-69
2021/07/26 04:10:59;;;;;;;31.35;12.90;;;;;;;16.26;100.00;100303.94;5016131;28;20041;-69
2021/07/26 04:13:28;;;;;;;27.33;13.40;;;;;;;16.20;100.00;100302.91;5018314;28;20425;-69
2021/07/26 04:15:56;;;;;;;31.50;13.50;;;;;;;16.39;100.00;100303.91;5019874;28;20041;-70
2021/07/26 04:18:25;;;;;;;26.88;13.55;;;;;;;16.44;100.00;100311.34;5213000;23;20043;-63
2021/07/26 04:20:53;;;;;;;31.35;13.00;;;;;;;16.35;100.00;100308.88;5003069;28;20034;-64
2021/07/26 04:23:21;;;;;;;32.67;13.93;;;;;;;16.52;100.00;100316.50;5002368;28;20382;-65
2021/07/26 04:25:50;;;;;;;25.08;11.35;;;;;;;16.61;100.00;100317.06;5002247;28;20046;-64
2021/07/26 04:28:20;;;;;;;27.45;11.70;;;;;;;16.67;100.00;100316.19;5004611;28;20437;-64
2021/07/26 04:30:48;;;;;;;23.90;11.75;;;;;;;16.68;100.00;100317.84;4998496;28;20046;-64
2021/07/26 04:33:16;;;;;;;34.92;13.35;;;;;;;16.77;100.00;100327.34;5005064;28;20422;-63
2021/07/26 04:35:43;;;;;;;31.77;13.98;;;;;;;16.87;100.00;100322.31;5001612;28;20084;-64
2021/07/26 04:38:11;;;;;;;27.05;13.68;;;;;;;16.76;100.00;100320.31;5003729;28;20050;-64
2021/07/26 04:40:39;;;;;;;50.38;17.20;;;;;;;16.75;100.00;100315.13;4998034;28;20395;-64
2021/07/26 04:43:07;;;;;;;35.83;14.70;;;;;;;16.79;100.00;100319.88;5001636;28;20200;-64
2021/07/26 04:45:36;;;;;;;32.20;15.02;;;;;;;16.79;100.00;100313.66;5002502;28;20104;-64
2021/07/26 04:48:05;;;;;;;34.58;13.80;;;;;;;17.07;100.00;100323.25;4997741;28;20064;-64
2021/07/26 04:50:32;;;;;;;38.13;15.00;;;;;;;17.12;100.00;100320.72;4999154;28;20045;-64
2021/07/26 04:53:00;;;;;;;32.70;15.35;;;;;;;17.02;100.00;100322.06;5000844;28;20050;-64
2021/07/26 04:55:29;;;;;;;34.72;16.10;;;;;;;17.10;100.00;100326.34;5001061;28;20037;-63
2021/07/26 04:57:56;;;;;;;35.47;15.15;;;;;;;17.51;100.00;100314.19;5006184;28;20045;-63
2021/07/26 05:00:26;;;;;;;32.85;15.48;;;;;;;17.83;100.00;100321.38;5001607;28;20102;-63
2021/07/26 05:02:56;;;;;;;36.45;15.48;;;;;;;18.13;100.00;100313.41;5001586;28;20046;-63
2021/07/26 05:05:24;;;;;;;26.88;14.10;;;;;;;18.29;100.00;100303.84;4999204;28;20441;-63
2021/07/26 05:07:52;;;;;;;34.85;14.50;;;;;;;18.41;100.00;100306.59;5001671;28;20032;-63
2021/07/26 05:10:20;;;;;;;28.88;13.10;;;;;;;18.61;100.00;100300.13;5000753;28;20339;-63
2021/07/26 05:12:48;;;;;;;32.72;13.93;;;;;;;18.47;100.00;100291.34;4999246;28;20085;-62
2021/07/26 05:15:16;;;;;;;24.92;13.45;;;;;;;18.59;100.00;100290.34;4999819;28;20109;-62
2021/07/26 05:17:44;;;;;;;22.55;11.43;;;;;;;18.54;100.00;100302.91;5000186;28;20065;-62
2021/07/26 05:20:14;;;;;;;37.45;14.40;;;;;;;18.56;100.00;100301.63;4998521;28;20100;-63
2021/07/26 05:22:42;;;;;;;20.42;10.90;;;;;;;18.30;100.00;100297.41;4999630;28;20045;-62
2021/07/26 05:25:10;;;;;;;20.30;10.68;;;;;;;17.96;100.00;100312.34;4999548;28;20441;-62
2021/07/26 05:27:38;;;;;;;20.65;10.45;;;;;;;17.71;100.00;100313.19;5002751;28;20217;-62
2021/07/26 05:30:08;;;;;;;17.95;9.35;;;;;;;17.55;100.00;100322.69;4997497;28;20069;-62
2021/07/26 05:32:36;;;;;;;15.80;8.57;;;;;;;17.26;100.00;100311.47;5000212;28;20046;-63
2021/07/26 05:35:05;;;;;;;15.93;8.20;;;;;;;17.16;100.00;100325.47;4998939;28;20038;-63
2021/07/26 05:37:34;;;;;;;14.32;6.97;;;;;;;17.19;100.00;100319.63;4998703;28;20092;-62
2021/07/26 05:40:03;;;;;;;16.42;7.03;;;;;;;17.04;100.00;100328.03;4998399;28;20334;-62
2021/07/26 05:42:31;;;;;;;11.15;6.82;;;;;;;16.89;100.00;100332.91;4994240;28;20049;-62
2021/07/26 05:45:00;;;;;;;14.32;8.48;;;;;;;16.92;100.00;100345.13;4995049;28;20397;-62
2021/07/26 05:47:29;;;;;;;12.32;7.32;;;;;;;17.04;100.00;100343.41;4996530;28;20137;-62
2021/07/26 05:49:57;;;;;;;10.68;5.72;;;;;;;17.05;100.00;100342.34;4992145;28;20443;-62
2021/07/26 05:52:25;;;;;;;12.30;6.85;;;;;;;16.99;100.00;100343.22;4995983;28;20046;-62
2021/07/26 05:54:55;;;;;;;13.07;7.70;;;;;;;16.87;100.00;100341.19;4994257;28;20265;-62
2021/07/26 05:57:24;;;;;;;11.80;6.15;;;;;;;17.03;100.00;100341.75;4997770;28;20045;-63
2021/07/26 05:59:53;;;;;;;12.55;6.80;;;;;;;17.04;100.00;100348.81;4998556;28;20053;-63
2021/07/26 06:02:21;;;;;;;13.98;7.07;;;;;;;17.11;100.00;100344.19;4993006;28;20046;-64
2021/07/26 06:04:49;;;;;;;11.63;6.88;;;;;;;17.25;100.00;100344.91;4994479;28;20049;-65
2021/07/26 06:07:18;;;;;;;11.52;7.00;;;;;;;17.15;100.00;100342.72;4997988;28;20046;-64
2021/07/26 06:09:46;;;;;;;8.48;5.82;;;;;;;17.29;100.00;100337.22;5001717;28;20384;-63
2021/07/26 06:12:15;;;;;;;11.20;6.78;;;;;;;17.39;100.00;100334.84;4997170;28;20046;-63
2021/07/26 06:14:43;;;;;;;11.00;6.55;;;;;;;17.33;100.00;100347.34;5003248;28;20054;-63
2021/07/26 06:17:12;;;;;;;12.45;6.90;;;;;;;17.47;100.00;100349.94;4997959;28;20034;-63
2021/07/26 06:19:40;;;;;;;13.15;8.27;;;;;;;17.59;100.00;100350.06;4999357;28;20050;-63
2021/07/26 06:22:08;;;;;;;15.23;8.65;;;;;;;17.52;100.00;100353.66;4995583;28;20337;-63
2021/07/26 06:24:35;;;;;;;15.75;10.43;;;;;;;17.37;100.00;100339.66;4999374;28;20045;-63
2021/07/26 06:27:04;;;;;;;18.25;11.68;;;;;;;17.46;100.00;100341.00;5004450;28;20330;-63
2021/07/26 06:29:33;;;;;;;21.63;13.85;;;;;;;17.58;100.00;100346.53;5004748;28;20060;-63
2021/07/26 06:32:01;;;;;;;22.40;14.00;;;;;;;17.36;100.00;100351.47;4998790;28;20069;-63
2021/07/26 06:34:29;;;;;;;24.40;14.13;;;;;;;17.29;100.00;100348.00;5001754;28;20049;-63
2021/07/26 06:36:57;;;;;;;21.85;14.23;;;;;;;17.51;100.00;100349.28;4995557;28;20045;-63
2021/07/26 06:39:25;;;;;;;26.45;14.13;;;;;;;17.53;100.00;100352.56;4999954;28;20097;-63
2021/07/26 06:41:53;;;;;;;30.90;15.23;;;;;;;17.11;100.00;100354.97;4993814;28;20046;-63
2021/07/26 06:44:21;;;;;;;33.17;16.90;;;;;;;17.16;100.00;100351.63;4996698;28;20583;-63
2021/07/26 06:46:50;;;;;;;33.75;16.88;;;;;;;17.21;100.00;100355.31;4998105;28;20097;-63
2021/07/26 06:49:18;;;;;;;32.88;17.83;;;;;;;17.16;100.00;100363.22;4998856;28;20042;-63
2021/07/26 06:51:46;;;;;;;29.90;15.65;;;;;;;17.41;100.00;100367.84;4993123;28;20085;-63
2021/07/26 06:54:15;;;;;;;30.23;17.52;;;;;;;17.53;100.00;100359.84;4998029;28;20046;-63
2021/07/26 06:56:43;;;;;;;52.75;20.85;;;;;;;17.28;100.00;100359.84;4998677;28;20370;-63
2021/07/26 06:59:11;;;;;;;44.00;19.85;;;;;;;17.81;100.00;100364.81;5000235;28;20314;-64
2021/07/26 07:01:38;;;;;;;41.30;20.48;;;;;;;17.56;100.00;100364.81;4993541;28;20105;-65
2021/07/26 07:04:08;;;;;;;43.03;20.58;;;;;;;17.45;100.00;100370.91;4997265;28;20437;-65
2021/07/26 07:06:36;;;;;;;56.75;24.52;;;;;;;17.17;100.00;100372.16;4995877;28;20441;-65
2021/07/26 07:09:04;;;;;;;51.00;24.00;;;;;;;16.99;100.00;100372.91;5004992;28;20310;-65
2021/07/26 07:11:32;;;;;;;47.95;21.02;;;;;;;17.27;100.00;100366.28;4998441;28;20053;-65
2021/07/26 07:14:00;;;;;;;51.33;21.50;;;;;;;17.56;100.00;100383.72;4999006;28;20397;-65
2021/07/26 07:16:28;;;;;;;58.33;21.83;;;;;;;17.42;100.00;100374.88;5000384;28;20385;-62
2021/07/26 07:18:57;;;;;;;48.85;21.55;;;;;;;17.36;100.00;100376.56;4995302;28;20392;-62
2021/07/26 07:21:27;;;;;;;49.35;21.85;;;;;;;17.37;100.00;100380.13;4996586;28;20042;-62
2021/07/26 07:23:56;;;;;;;51.03;21.00;;;;;;;17.60;100.00;100390.31;4998216;28;20042;-62
2021/07/26 07:26:25;;;;;;;54.83;22.05;;;;;;;17.65;100.00;100384.25;4996773;28;20046;-62
2021/07/26 07:28:53;;;;;;;46.78;21.42;;;;;;;17.57;100.00;100379.16;5000866;28;20042;-62
2021/07/26 07:31:24;;;;;;;52.60;22.50;;;;;;;17.84;100.00;100383.25;4998120;28;20045;-62
2021/07/26 07:33:53;;;;;;;47.40;21.35;;;;;;;17.81;100.00;100380.19;4996446;28;20052;-62
2021/07/26 07:36:21;;;;;;;43.95;21.63;;;;;;;18.03;100.00;100372.50;4996172;28;20049;-62
2021/07/26 07:38:50;;;;;;;54.40;22.55;;;;;;;18.04;100.00;100376.88;4993192;28;20057;-62
2021/07/26 07:41:19;;;;;;;48.00;22.35;;;;;;;17.87;100.00;100382.81;4997208;28;20049;-62
2021/07/26 07:43:47;;;;;;;54.20;24.83;;;;;;;17.50;100.00;100387.28;4993894;28;20049;-62
2021/07/26 07:46:19;;;;;;;53.97;23.52;;;;;;;17.57;100.00;100395.34;4995560;28;20038;-63
2021/07/26 07:48:47;;;;;;;50.30;23.13;;;;;;;17.64;100.00;100396.94;4998651;28;20046;-63
2021/07/26 07:51:17;;;;;;;50.50;23.58;;;;;;;17.57;100.00;100400.75;4996099;28;20121;-65
2021/07/26 07:53:44;;;;;;;55.33;24.80;;;;;;;17.58;100.00;100402.38;4998591;28;20042;-66
2021/07/26 07:56:14;;;;;;;54.53;24.83;;;;;;;17.79;100.00;100404.72;4998929;28;20455;-65
2021/07/26 07:58:42;;;;;;;49.15;23.10;;;;;;;18.12;100.00;100398.22;5003117;28;20334;-65
2021/07/26 08:01:10;;;;;;;48.30;23.50;;;;;;;18.47;100.00;100402.19;4999927;28;20046;-62
2021/07/26 08:03:38;;;;;;;43.70;22.27;;;;;;;18.68;100.00;100395.50;5004152;28;20463;-62
2021/07/26 08:06:06;;;;;;;42.92;21.75;;;;;;;18.28;100.00;100390.56;5001623;28;20046;-62
2021/07/26 08:08:34;;;;;;;43.72;22.30;;;;;;;18.26;100.00;100401.59;5004172;28;20054;-63
2021/07/26 08:11:05;;;;;;;46.45;23.92;;;;;;;18.29;100.00;100403.03;4998514;28;20049;-62
2021/07/26 08:13:37;;;;;;;40.28;22.65;;;;;;;18.41;100.00;100403.94;5002822;28;20442;-63
2021/07/26 08:16:05;;;;;;;37.33;19.45;;;;;;;18.49;100.00;100397.41;5000737;28;20133;-62
2021/07/26 08:18:48;;;;;;;38.50;19.77;;;;;;;18.84;100.00;100391.34;5001399;28;20048;-62
2021/07/26 08:21:16;;;;;;;34.83;18.95;;;;;;;18.95;100.00;100389.78;4998253;28;20053;-62
2021/07/26 08:23:44;;;;;;;33.72;18.15;;;;;;;19.20;100.00;100385.03;4998415;28;20046;-62
2021/07/26 08:26:12;;;;;;;29.85;18.20;;;;;;;19.39;100.00;100379.56;4999423;28;20038;-62
2021/07/26 08:28:42;;;;;;;31.38;18.60;;;;;;;19.59;100.00;100369.25;4999910;28;20353;-62
2021/07/26 08:31:09;;;;;;;35.17;19.08;;;;;;;19.36;100.00;100382.72;4995922;28;20053;-62
2021/07/26 08:33:37;;;;;;;39.80;20.17;;;;;;;19.17;100.00;100401.75;5000967;28;20046;-62
2021/07/26 08:36:06;;;;;;;39.85;20.88;;;;;;;19.70;100.00;100391.16;5000033;28;20065;-64
2021/07/26 08:38:33;;;;;;;38.30;20.92;;;;;;;19.92;100.00;100391.44;4998765;28;20177;-64
2021/07/26 08:41:01;;;;;;;36.90;20.63;;;;;;;19.14;100.00;100404.91;4997198;28;20035;-64
2021/07/26 08:43:29;;;;;;;37.15;20.30;;;;;;;18.81;100.00;100422.41;5000623;28;20104;-64
2021/07/26 08:45:59;;;;;;;33.33;21.17;;;;;;;18.45;100.00;100413.25;5001717;28;20037;-64
2021/07/26 08:48:28;;;;;;;34.78;20.13;;;;;;;18.53;100.00;100421.06;4993455;28;20046;-63
2021/07/26 08:50:57;;;;;;;41.00;20.85;;;;;;;18.78;100.00;100424.72;4997884;28;20127;-63
2021/07/26 08:53:26;;;;;;;36.25;19.40;;;;;;;18.69;100.00;100424.22;5003562;28;20042;-63
2021/07/26 08:55:55;;;;;;;32.78;18.13;;;;;;;18.96;100.00;100419.31;5001759;28;20038;-63
2021/07/26 08:58:24;;;;;;;31.38;19.23;;;;;;;19.41;100.00;100407.25;5003834;28;20057;-62
2021/07/26 09:00:51;;;;;;;39.30;18.58;;;;;;;20.02;100.00;100407.94;5002524;28;20042;-62
2021/07/26 09:03:21;;;;;;;32.13;16.73;;;;;;;20.20;100.00;100403.44;5000509;28;20107;-62
2021/07/26 09:05:49;;;;;;;31.13;16.55;;;;;;;19.45;100.00;100411.13;5001243;28;20057;-62
2021/07/26 09:08:17;;;;;;;30.60;16.75;;;;;;;19.18;100.00;100421.50;4998979;28;20042;-61
2021/07/26 09:10:45;;;;;;;31.50;16.65;;;;;;;18.92;100.00;100435.19;5002977;28;20092;-62
2021/07/26 09:13:33;;;;;;;34.15;16.85;;;;;;;18.36;100.00;100441.63;4998479;28;20073;-61
2021/07/26 09:16:17;;;;;;;38.08;17.40;;;;;;;18.10;100.00;100448.94;4999468;28;20120;-62
2021/07/26 09:18:47;;;;;;;32.95;17.23;;;;;;;17.93;100.00;100453.25;5001079;28;20062;-62
2021/07/26 09:21:15;;;;;;;33.50;17.48;;;;;;;18.03;100.00;100462.50;4996846;28;20088;-62
2021/07/26 09:24:02;;;;;;;33.28;18.52;;;;;;;18.03;100.00;100469.78;5001328;28;20042;-64
2021/07/26 09:26:30;;;;;;;40.22;17.52;;;;;;;17.87;100.00;100463.84;4999433;28;20046;-63
2021/07/26 09:28:58;;;;;;;35.85;16.85;;;;;;;18.52;100.00;100459.94;4997356;28;20042;-63
2021/07/26 09:31:25;;;;;;;39.85;18.00;;;;;;;19.65;100.00;100447.88;4992604;28;20065;-64
2021/07/26 09:34:27;;;;;;;38.05;19.35;;;;;;;19.19;100.00;100434.00;4998218;28;20061;-63
2021/07/26 09:36:55;;;;;;;36.75;16.83;;;;;;;19.54;100.00;100438.69;5000715;28;20362;-63
2021/07/26 09:39:27;;;;;;;36.20;18.50;;;;;;;19.69;100.00;100449.09;4997690;28;20053;-63
2021/07/26 09:41:56;;;;;;;33.70;16.20;;;;;;;20.53;100.00;100443.47;4997688;28;20139;-63
2021/07/26 09:44:26;;;;;;;30.85;15.10;;;;;;;20.64;100.00;100425.56;4997173;28;20054;-63
2021/07/26 09:46:54;;;;;;;31.98;16.73;;;;;;;22.79;100.00;100413.03;4998738;28;20346;-63
2021/07/26 09:49:22;;;;;;;31.05;14.70;;;;;;;21.88;100.00;100408.81;4998183;28;20104;-63
2021/07/26 09:52:05;;;;;;;22.80;12.45;;;;;;;22.45;100.00;100385.97;4994820;28;20046;-63
2021/07/26 09:54:43;;;;;;;22.58;13.32;;;;;;;21.82;100.00;100411.44;4998400;28;20073;-63
2021/07/26 09:57:18;;;;;;;29.02;13.73;;;;;;;22.38;100.00;100405.19;4998178;28;20062;-64
2021/07/26 09:59:47;;;;;;;23.52;12.88;;;;;;;22.04;100.00;100385.38;4999859;28;20046;-64
2021/07/26 10:02:16;;;;;;;26.65;14.63;;;;;;;21.44;100.00;100407.53;4997871;28;20093;-64
2021/07/26 10:04:44;;;;;;;25.50;14.25;;;;;;;22.56;100.00;100398.63;5000912;28;20120;-63
2021/07/26 10:07:15;;;;;;;23.80;13.18;;;;;;;23.06;100.00;100406.81;5001903;28;20337;-64
2021/07/26 10:09:43;;;;;;;23.52;13.88;;;;;;;22.34;100.00;100399.44;5000000;28;20065;-64
2021/07/26 10:12:15;;;;;;;21.77;11.90;;;;;;;21.29;100.00;100418.97;4997076;28;20150;-64
2021/07/26 10:14:43;;;;;;;20.67;12.30;;;;;;;19.98;100.00;100424.91;5000271;28;20055;-66
2021/07/26 10:17:11;;;;;;;24.38;11.65;;;;;;;18.89;100.00;100461.84;5000738;28;20441;-63
2021/07/26 10:19:39;;;;;;;26.90;13.82;;;;;;;18.90;100.00;100467.03;5000054;28;20075;-62
2021/07/26 10:22:10;;;;;;;25.13;13.10;;;;;;;18.75;100.00;100480.09;4996973;28;20045;-62
2021/07/26 10:24:44;;;;;;;24.88;14.63;;;;;;;19.08;100.00;100482.44;4995534;28;20044;-62
2021/07/26 10:27:15;;;;;;;24.17;13.10;;;;;;;19.47;100.00;100457.75;4997858;28;20358;-61
2021/07/26 10:29:53;;;;;;;23.27;12.60;;;;;;;20.16;100.00;100468.16;4998051;28;20062;-61
2021/07/26 10:32:39;;;;;;;20.10;12.70;;;;;;;21.04;100.00;100445.63;4995084;28;20046;-62
2021/07/26 10:35:38;;;;;;;20.83;12.35;;;;;;;21.29;100.00;100440.69;4996921;28;20053;-61
2021/07/26 10:38:07;;;;;;;19.45;12.07;;;;;;;20.93;100.00;100431.03;4994937;28;20385;-61
2021/07/26 10:40:43;;;;;;;22.17;13.13;;;;;;;20.78;100.00;100437.81;4997142;28;20422;-61
2021/07/26 10:43:16;;;;;;;27.60;13.07;;;;;;;20.41;100.00;100451.66;4997113;28;20030;-61
2021/07/26 10:45:59;;;;;;;24.05;13.70;;;;;;;19.86;100.00;100462.81;4997540;28;20341;-61
2021/07/26 10:48:34;;;;;;;25.63;14.93;;;;;;;19.99;100.00;100469.88;4994214;28;20385;-61
2021/07/26 10:51:03;;;;;;;30.02;15.15;;;;;;;19.61;100.00;100486.28;4994489;28;20049;-61
2021/07/26 10:53:59;;;;;;;29.63;16.27;;;;;;;19.18;100.00;100503.53;4996636;28;20356;-63
2021/07/26 10:56:29;;;;;;;30.17;16.42;;;;;;;18.49;100.00;100509.06;4992511;28;20054;-62
2021/07/26 10:59:00;;;;;;;28.20;15.48;;;;;;;18.22;100.00;100517.41;4998002;28;20074;-62
2021/07/26 11:01:41;;;;;;;30.60;16.60;;;;;;;18.11;100.00;100520.84;4997661;28;20446;-62
2021/07/26 11:04:34;;;;;;;25.58;13.60;;;;;;;18.15;100.00;100522.06;5003493;28;20112;-62
2021/07/26 11:07:03;;;;;;;23.77;13.23;;;;;;;17.87;100.00;100514.34;5000251;28;20329;-64
2021/07/26 11:09:45;;;;;;;25.85;13.20;;;;;;;17.71;100.00;100516.50;5000659;28;20046;-64
2021/07/26 11:12:15;;;;;;;25.90;13.43;;;;;;;17.65;100.00;100517.41;4996212;28;20050;-63
2021/07/26 11:15:16;;;;;;;27.02;13.40;;;;;;;17.68;100.00;100516.13;5000975;28;20053;-64
2021/07/26 11:18:19;;;;;;;23.02;11.98;;;;;;;17.54;100.00;100510.81;5003004;28;20422;-63